Time,TemperatureF,DewpointF,PressureIn,WindDirection,WindDirectionDegrees,WindSpeedMPH,WindSpeedGustMPH,Humidity,HourlyPrecipIn,Conditions,Clouds,dailyrainin,SoftwareType,DateUTC
2013-04-05 00:02:00,41.0,36.0,30.12,WSW,240,3.0,-999.0,80,-99.99,,,-99.99,,2013-04-05 05:02:00,
2013-04-05 00:12:00,41.0,36.0,30.12,WSW,240,3.0,-999.0,80,-99.99,,,-99.99,,2013-04-05 05:12:00,
2013-04-05 00:22:00,41.0,36.0,30.12,WSW,240,5.0,-999.0,80,-99.99,,,-99.99,,2013-04-05 05:22:00,
2013-04-05 00:32:00,43.0,36.0,30.12,SW,230,5.0,-999.0,75,-99.99,,,-99.99,,2013-04-05 05:32:00,
2013-04-05 00:42:00,43.0,36.0,30.12,SW,230,5.0,-999.0,75,-99.99,,,-99.99,,2013-04-05 05:42:00,
2013-04-05 00:52:00,41.0,36.0,30.12,WSW,240,3.0,-999.0,80,-99.99,,,-99.99,,2013-04-05 05:52:00,
2013-04-05 01:02:00,41.0,36.0,30.12,WSW,240,3.0,-999.0,80,-99.99,,,-99.99,,2013-04-05 06:02:00,
2013-04-05 01:12:00,41.0,36.0,30.12,WSW,240,3.0,-999.0,80,-99.99,,,-99.99,,2013-04-05 06:12:00,
2013-04-05 01:22:00,39.0,36.0,30.12,SW,230,5.0,-999.0,86,-99.99,,,-99.99,,2013-04-05 06:22:00,
2013-04-05 01:32:00,39.0,36.0,30.12,WSW,240,5.0,-999.0,86,-99.99,,,-99.99,,2013-04-05 06:32:00,
2013-04-05 01:42:00,39.0,36.0,30.12,WSW,240,5.0,-999.0,86,-99.99,,,-99.99,,2013-04-05 06:42:00,
2013-04-05 01:52:00,39.0,36.0,30.12,WSW,240,5.0,-999.0,86,-99.99,,,-99.99,,2013-04-05 06:52:00,
2013-04-05 02:02:00,39.0,36.0,30.12,WSW,240,5.0,-999.0,86,-99.99,,,-99.99,,2013-04-05 07:02:00,
2013-04-05 02:12:00,39.0,36.0,30.12,WSW,240,5.0,-999.0,86,-99.99,,,-99.99,,2013-04-05 07:12:00,
2013-04-05 02:22:00,39.0,36.0,30.13,WSW,250,3.0,-999.0,86,-99.99,,,-99.99,,2013-04-05 07:22:00,
2013-04-05 02:32:00,39.0,36.0,30.13,WSW,250,3.0,-999.0,86,-99.99,,,-99.99,,2013-04-05 07:32:00,
2013-04-05 02:42:00,39.0,36.0,30.13,WSW,250,3.0,-999.0,86,-99.99,,,-99.99,,2013-04-05 07:42:00,
2013-04-05 02:52:00,39.0,36.0,30.13,WSW,250,3.0,-999.0,86,-99.99,,,-99.99,,2013-04-05 07:52:00,
2013-04-05 03:02:00,39.0,36.0,30.13,WSW,250,3.0,-999.0,86,-99.99,,,-99.99,,2013-04-05 08:02:00,
2013-04-05 03:23:00,37.0,36.0,30.11,North,0,0.0,-999.0,93,-99.99,,,-99.99,,2013-04-05 08:23:00,
2013-04-05 03:33:00,37.0,36.0,30.11,North,0,0.0,-999.0,93,-99.99,,,-99.99,,2013-04-05 08:33:00,
2013-04-05 03:43:00,37.0,36.0,30.11,North,0,0.0,-999.0,93,-99.99,,,-99.99,,2013-04-05 08:43:00,
2013-04-05 03:52:00,37.0,36.0,30.11,North,0,0.0,-999.0,93,-99.99,,,-99.99,,2013-04-05 08:52:00,
2013-04-05 04:02:00,37.0,36.0,30.11,North,0,0.0,-999.0,93,-99.99,,,-99.99,,2013-04-05 09:02:00,
2013-04-05 04:12:00,37.0,36.0,30.11,North,0,0.0,-999.0,93,-99.99,,,-99.99,,2013-04-05 09:12:00,
2013-04-05 04:22:00,34.0,34.0,30.10,North,0,0.0,-999.0,100,-99.99,,,-99.99,,2013-04-05 09:22:00,
2013-04-05 04:33:00,36.0,34.0,30.10,North,0,0.0,-999.0,93,-99.99,,,-99.99,,2013-04-05 09:33:00,
2013-04-05 04:43:00,36.0,34.0,30.10,North,0,0.0,-999.0,93,-99.99,,,-99.99,,2013-04-05 09:43:00,
2013-04-05 04:53:00,34.0,34.0,30.09,North,0,0.0,-999.0,100,-99.99,,,-99.99,,2013-04-05 09:53:00,
2013-04-05 05:03:00,34.0,34.0,30.09,North,0,0.0,-999.0,100,-99.99,,,-99.99,,2013-04-05 10:03:00,
2013-04-05 05:12:00,34.0,34.0,30.09,North,0,0.0,-999.0,100,-99.99,,,-99.99,,2013-04-05 10:12:00,
2013-04-05 05:23:00,34.0,32.0,30.12,WSW,240,6.0,-999.0,93,-99.99,,,-99.99,,2013-04-05 10:23:00,
2013-04-05 05:32:00,34.0,32.0,30.12,WSW,240,5.0,-999.0,93,-99.99,,,-99.99,,2013-04-05 10:32:00,
2013-04-05 05:43:00,34.0,32.0,30.12,WSW,240,5.0,-999.0,93,-99.99,,,-99.99,,2013-04-05 10:43:00,
2013-04-05 05:53:00,36.0,34.0,30.12,North,0,0.0,-999.0,93,-99.99,,,-99.99,,2013-04-05 10:53:00,
2013-04-05 06:02:00,36.0,34.0,30.12,North,0,0.0,-999.0,93,-99.99,,,-99.99,,2013-04-05 11:02:00,
2013-04-05 06:12:00,36.0,34.0,30.12,North,0,0.0,-999.0,93,-99.99,,,-99.99,,2013-04-05 11:12:00,
2013-04-05 06:32:00,36.0,34.0,30.14,SW,230,3.0,-999.0,93,-99.99,,,-99.99,,2013-04-05 11:32:00,
2013-04-05 06:42:00,36.0,34.0,30.14,SW,230,3.0,-999.0,93,-99.99,,,-99.99,,2013-04-05 11:42:00,
2013-04-05 06:52:00,36.0,34.0,30.14,North,0,0.0,-999.0,93,-99.99,,,-99.99,,2013-04-05 11:52:00,
2013-04-05 07:02:00,36.0,34.0,30.14,North,0,0.0,-999.0,93,-99.99,,,-99.99,,2013-04-05 12:02:00,
2013-04-05 07:12:00,36.0,34.0,30.14,North,0,0.0,-999.0,93,-99.99,,,-99.99,,2013-04-05 12:12:00,
2013-04-05 07:22:00,32.0,30.0,30.14,North,0,0.0,-999.0,92,-99.99,,,-99.99,,2013-04-05 12:22:00,
2013-04-05 07:32:00,30.0,30.0,30.14,North,0,0.0,-999.0,100,-99.99,,,-99.99,,2013-04-05 12:32:00,
2013-04-05 07:42:00,30.0,30.0,30.14,North,0,0.0,-999.0,100,-99.99,,,-99.99,,2013-04-05 12:42:00,
2013-04-05 07:52:00,30.0,30.0,30.14,North,0,0.0,-999.0,100,-99.99,,,-99.99,,2013-04-05 12:52:00,
2013-04-05 08:02:00,30.0,30.0,30.14,North,0,0.0,-999.0,100,-99.99,,,-99.99,,2013-04-05 13:02:00,
2013-04-05 08:12:00,30.0,30.0,30.14,North,0,0.0,-999.0,100,-99.99,,,-99.99,,2013-04-05 13:12:00,
2013-04-05 08:22:00,36.0,34.0,30.14,East,80,6.0,-999.0,93,-99.99,,,-99.99,,2013-04-05 13:22:00,
2013-04-05 08:32:00,37.0,36.0,30.14,ESE,110,3.0,-999.0,93,-99.99,,,-99.99,,2013-04-05 13:32:00,
2013-04-05 08:42:00,37.0,36.0,30.14,ESE,110,3.0,-999.0,93,-99.99,,,-99.99,,2013-04-05 13:42:00,
2013-04-05 08:52:00,39.0,37.0,30.14,ESE,110,3.0,-999.0,93,-99.99,,,-99.99,,2013-04-05 13:52:00,
2013-04-05 09:02:00,39.0,37.0,30.14,ESE,110,3.0,-999.0,93,-99.99,,,-99.99,,2013-04-05 14:02:00,
2013-04-05 09:12:00,39.0,37.0,30.14,ESE,110,3.0,-999.0,93,-99.99,,,-99.99,,2013-04-05 14:12:00,
2013-04-05 09:22:00,45.0,39.0,30.13,SE,140,3.0,-999.0,81,-99.99,,,-99.99,,2013-04-05 14:22:00,
2013-04-05 09:36:00,48.0,39.0,30.13,SE,140,3.0,-999.0,70,-99.99,,,-99.99,,2013-04-05 14:36:00,
2013-04-05 09:43:00,48.0,39.0,30.13,SE,140,3.0,-999.0,70,-99.99,,,-99.99,,2013-04-05 14:43:00,
2013-04-05 09:53:00,48.0,39.0,30.13,SE,140,3.0,-999.0,70,-99.99,,,-99.99,,2013-04-05 14:53:00,
2013-04-05 10:02:00,48.0,39.0,30.13,SE,140,3.0,-999.0,70,-99.99,,,-99.99,,2013-04-05 15:02:00,
2013-04-05 10:12:00,48.0,39.0,30.13,SE,140,3.0,-999.0,70,-99.99,,,-99.99,,2013-04-05 15:12:00,
2013-04-05 10:23:00,54.0,43.0,30.11,SSW,210,5.0,-999.0,66,-99.99,,,-99.99,,2013-04-05 15:23:00,
2013-04-05 10:33:00,55.0,43.0,30.11,South,190,6.0,-999.0,62,-99.99,,,-99.99,,2013-04-05 15:33:00,
2013-04-05 10:43:00,55.0,43.0,30.11,South,190,6.0,-999.0,62,-99.99,,,-99.99,,2013-04-05 15:43:00,
2013-04-05 10:54:00,57.0,43.0,30.10,SSW,200,14.0,-999.0,58,-99.99,,,-99.99,,2013-04-05 15:54:00,
2013-04-05 11:02:00,57.0,43.0,30.10,SSW,200,14.0,-999.0,58,-99.99,,,-99.99,,2013-04-05 16:02:00,
2013-04-05 11:13:00,57.0,43.0,30.10,SSW,200,14.0,-999.0,58,-99.99,,,-99.99,,2013-04-05 16:13:00,
2013-04-05 11:23:00,61.0,41.0,30.10,South,180,14.0,-999.0,48,-99.99,,,-99.99,,2013-04-05 16:23:00,
2013-04-05 11:33:00,61.0,41.0,30.09,South,180,15.0,23.0,48,-99.99,,,-99.99,,2013-04-05 16:33:00,
2013-04-05 11:43:00,61.0,41.0,30.09,South,180,15.0,23.0,48,-99.99,,,-99.99,,2013-04-05 16:43:00,
2013-04-05 11:53:00,61.0,39.0,30.09,South,180,16.0,22.0,44,-99.99,,,-99.99,,2013-04-05 16:53:00,
2013-04-05 12:03:00,61.0,39.0,30.09,South,180,16.0,22.0,44,-99.99,,,-99.99,,2013-04-05 17:03:00,
2013-04-05 12:13:00,61.0,39.0,30.09,South,180,16.0,22.0,44,-99.99,,,-99.99,,2013-04-05 17:13:00,
2013-04-05 12:23:00,63.0,37.0,30.08,South,180,17.0,-999.0,39,-99.99,,,-99.99,,2013-04-05 17:23:00,
2013-04-05 12:32:00,63.0,34.0,30.07,South,180,18.0,25.0,33,-99.99,,,-99.99,,2013-04-05 17:32:00,
2013-04-05 12:45:00,64.0,36.0,30.07,South,170,15.0,27.0,34,-99.99,,,-99.99,,2013-04-05 17:45:00,
2013-04-05 12:52:00,64.0,36.0,30.06,South,180,18.0,24.0,34,-99.99,,,-99.99,,2013-04-05 17:52:00,
2013-04-05 13:02:00,64.0,36.0,30.06,South,180,18.0,24.0,34,-99.99,,,-99.99,,2013-04-05 18:02:00,
2013-04-05 13:12:00,64.0,36.0,30.06,South,180,18.0,24.0,34,-99.99,,,-99.99,,2013-04-05 18:12:00,
2013-04-05 13:22:00,66.0,36.0,30.04,South,180,21.0,28.0,32,-99.99,,,-99.99,,2013-04-05 18:22:00,
2013-04-05 13:32:00,66.0,34.0,30.03,South,180,24.0,-999.0,29,-99.99,,,-99.99,,2013-04-05 18:32:00,
2013-04-05 13:43:00,66.0,34.0,30.03,South,180,24.0,-999.0,29,-99.99,,,-99.99,,2013-04-05 18:43:00,
2013-04-05 13:53:00,66.0,36.0,30.01,SSE,160,22.0,28.0,32,-99.99,,,-99.99,,2013-04-05 18:53:00,
2013-04-05 14:02:00,66.0,36.0,30.01,SSE,160,22.0,28.0,32,-99.99,,,-99.99,,2013-04-05 19:02:00,
2013-04-05 14:13:00,66.0,36.0,30.01,SSE,160,22.0,28.0,32,-99.99,,,-99.99,,2013-04-05 19:13:00,
2013-04-05 14:22:00,68.0,36.0,29.99,South,170,20.0,28.0,30,-99.99,,,-99.99,,2013-04-05 19:22:00,
2013-04-05 14:33:00,68.0,36.0,29.99,South,170,20.0,28.0,30,-99.99,,,-99.99,,2013-04-05 19:33:00,
2013-04-05 14:42:00,68.0,36.0,29.99,South,170,20.0,28.0,30,-99.99,,,-99.99,,2013-04-05 19:42:00,
2013-04-05 14:53:00,70.0,36.0,29.98,South,170,25.0,30.0,28,-99.99,,,-99.99,,2013-04-05 19:53:00,
2013-04-05 15:02:00,70.0,36.0,29.98,South,170,25.0,30.0,28,-99.99,,,-99.99,,2013-04-05 20:02:00,
2013-04-05 15:11:00,70.0,36.0,29.98,South,170,25.0,30.0,28,-99.99,,,-99.99,,2013-04-05 20:11:00,
2013-04-05 15:22:00,70.0,36.0,29.95,SSE,160,24.0,29.0,28,-99.99,,,-99.99,,2013-04-05 20:22:00,
2013-04-05 15:32:00,68.0,34.0,29.94,South,170,23.0,27.0,28,-99.99,,,-99.99,,2013-04-05 20:32:00,
2013-04-05 15:43:00,68.0,34.0,29.94,South,170,23.0,27.0,28,-99.99,,,-99.99,,2013-04-05 20:43:00,
2013-04-05 15:52:00,66.0,34.0,29.93,South,170,23.0,29.0,29,-99.99,,,-99.99,,2013-04-05 20:52:00,
2013-04-05 16:02:00,66.0,34.0,29.93,South,170,23.0,29.0,29,-99.99,,,-99.99,,2013-04-05 21:02:00,
2013-04-05 16:12:00,66.0,34.0,29.93,South,170,23.0,29.0,29,-99.99,,,-99.99,,2013-04-05 21:12:00,
2013-04-05 16:23:00,66.0,36.0,29.91,SSE,160,20.0,25.0,32,-99.99,,,-99.99,,2013-04-05 21:23:00,
2013-04-05 16:33:00,66.0,36.0,29.91,South,170,23.0,29.0,32,-99.99,,,-99.99,,2013-04-05 21:33:00,
2013-04-05 16:44:00,66.0,36.0,29.91,South,170,23.0,29.0,32,-99.99,,,-99.99,,2013-04-05 21:44:00,
2013-04-05 16:55:00,66.0,36.0,29.89,South,170,27.0,32.0,32,-99.99,,,-99.99,,2013-04-05 21:55:00,
2013-04-05 17:03:00,66.0,36.0,29.89,South,170,27.0,32.0,32,-99.99,,,-99.99,,2013-04-05 22:03:00,
2013-04-05 17:13:00,66.0,36.0,29.89,South,170,27.0,32.0,32,-99.99,,,-99.99,,2013-04-05 22:13:00,
2013-04-05 17:23:00,68.0,36.0,29.88,South,170,24.0,31.0,30,-99.99,,,-99.99,,2013-04-05 22:23:00,
2013-04-05 17:33:00,66.0,36.0,29.87,South,170,25.0,33.0,32,-99.99,,,-99.99,,2013-04-05 22:33:00,
2013-04-05 17:44:00,66.0,36.0,29.87,South,170,25.0,33.0,32,-99.99,,,-99.99,,2013-04-05 22:44:00,
2013-04-05 17:53:00,66.0,36.0,29.87,South,170,25.0,33.0,32,-99.99,,,-99.99,,2013-04-05 22:53:00,
2013-04-05 18:02:00,66.0,36.0,29.87,South,170,25.0,33.0,32,-99.99,,,-99.99,,2013-04-05 23:02:00,
2013-04-05 18:12:00,66.0,36.0,29.87,South,170,25.0,33.0,32,-99.99,,,-99.99,,2013-04-05 23:12:00,
2013-04-05 18:22:00,64.0,39.0,29.86,SSE,160,16.0,-999.0,39,-99.99,,,-99.99,,2013-04-05 23:22:00,
2013-04-05 18:33:00,64.0,39.0,29.86,SSE,160,16.0,-999.0,39,-99.99,,,-99.99,,2013-04-05 23:33:00,
2013-04-05 18:42:00,64.0,39.0,29.85,South,170,20.0,25.0,39,-99.99,,,-99.99,,2013-04-05 23:42:00,
2013-04-05 18:53:00,64.0,39.0,29.85,South,170,20.0,25.0,39,-99.99,,,-99.99,,2013-04-05 23:53:00,
2013-04-05 19:02:00,64.0,39.0,29.85,South,170,20.0,25.0,39,-99.99,,,-99.99,,2013-04-06 00:02:00,
2013-04-05 19:13:00,64.0,39.0,29.85,South,170,20.0,25.0,39,-99.99,,,-99.99,,2013-04-06 00:13:00,
2013-04-05 19:22:00,63.0,39.0,29.84,South,170,18.0,28.0,41,-99.99,,,-99.99,,2013-04-06 00:22:00,
2013-04-05 19:33:00,63.0,39.0,29.84,South,170,18.0,28.0,41,-99.99,,,-99.99,,2013-04-06 00:33:00,
2013-04-05 19:43:00,63.0,41.0,29.84,SSE,160,18.0,24.0,45,-99.99,,,-99.99,,2013-04-06 00:43:00,
2013-04-05 19:52:00,63.0,41.0,29.83,SSE,160,17.0,24.0,45,-99.99,,,-99.99,,2013-04-06 00:52:00,
2013-04-05 20:02:00,63.0,41.0,29.83,SSE,160,17.0,24.0,45,-99.99,,,-99.99,,2013-04-06 01:02:00,
2013-04-05 20:12:00,63.0,41.0,29.83,SSE,160,17.0,24.0,45,-99.99,,,-99.99,,2013-04-06 01:12:00,
2013-04-05 20:22:00,61.0,39.0,29.83,SSE,160,18.0,23.0,44,-99.99,,,-99.99,,2013-04-06 01:22:00,
2013-04-05 20:32:00,61.0,39.0,29.81,SSE,160,20.0,25.0,44,-99.99,,,-99.99,,2013-04-06 01:32:00,
2013-04-05 20:43:00,61.0,39.0,29.81,SSE,160,20.0,25.0,44,-99.99,,,-99.99,,2013-04-06 01:43:00,
2013-04-05 20:53:00,59.0,39.0,29.80,SSE,160,16.0,27.0,47,-99.99,,,-99.99,,2013-04-06 01:53:00,
2013-04-05 21:02:00,59.0,39.0,29.80,SSE,160,16.0,27.0,47,-99.99,,,-99.99,,2013-04-06 02:02:00,
2013-04-05 21:12:00,59.0,39.0,29.80,SSE,160,16.0,27.0,47,-99.99,,,-99.99,,2013-04-06 02:12:00,
2013-04-05 21:22:00,57.0,41.0,29.79,SSE,160,17.0,23.0,54,-99.99,,,-99.99,,2013-04-06 02:22:00,
2013-04-05 21:32:00,57.0,41.0,29.79,SSE,160,17.0,22.0,54,-99.99,,,-99.99,,2013-04-06 02:32:00,
2013-04-05 21:43:00,57.0,41.0,29.79,SSE,160,17.0,22.0,54,-99.99,,,-99.99,,2013-04-06 02:43:00,
2013-04-05 21:52:00,57.0,41.0,29.78,SSE,160,21.0,27.0,54,-99.99,,,-99.99,,2013-04-06 02:52:00,
2013-04-05 22:02:00,57.0,41.0,29.78,SSE,160,21.0,27.0,54,-99.99,,,-99.99,,2013-04-06 03:02:00,
2013-04-05 22:12:00,57.0,41.0,29.78,SSE,160,21.0,27.0,54,-99.99,,,-99.99,,2013-04-06 03:12:00,
2013-04-05 22:22:00,59.0,39.0,29.78,SSE,160,22.0,29.0,47,-99.99,,,-99.99,,2013-04-06 03:22:00,
2013-04-05 22:33:00,57.0,39.0,29.78,SSE,160,18.0,28.0,50,-99.99,,,-99.99,,2013-04-06 03:33:00,
2013-04-05 22:43:00,57.0,39.0,29.78,SSE,160,18.0,28.0,50,-99.99,,,-99.99,,2013-04-06 03:43:00,
2013-04-05 22:54:00,57.0,39.0,29.78,SSE,160,16.0,22.0,50,-99.99,,,-99.99,,2013-04-06 03:54:00,
2013-04-05 23:03:00,57.0,39.0,29.78,SSE,160,16.0,22.0,50,-99.99,,,-99.99,,2013-04-06 04:03:00,
2013-04-05 23:13:00,57.0,39.0,29.78,SSE,160,16.0,22.0,50,-99.99,,,-99.99,,2013-04-06 04:13:00,
2013-04-05 23:23:00,57.0,39.0,29.77,South,170,20.0,25.0,50,-99.99,,,-99.99,,2013-04-06 04:23:00,
2013-04-05 23:32:00,57.0,41.0,29.77,South,180,20.0,24.0,54,-99.99,,,-99.99,,2013-04-06 04:32:00,
2013-04-05 23:43:00,57.0,41.0,29.77,South,180,20.0,28.0,54,-99.99,,,-99.99,,2013-04-06 04:43:00,
2013-04-05 23:53:00,57.0,41.0,29.76,South,180,18.0,25.0,54,-99.99,,,-99.99,,2013-04-06 04:53:00,